createdAt,value
2018-12-24T00:00:59.727Z,95210.45
2018-12-24T00:03:30.770Z,95210.97
2018-12-24T00:06:01.581Z,95205.06
2018-12-24T00:08:32.589Z,95204.86
2018-12-24T00:11:03.562Z,95199.48
2018-12-24T00:13:34.462Z,95199.81
2018-12-24T00:16:05.523Z,95190.31
2018-12-24T00:18:36.757Z,95191.94
2018-12-24T00:21:07.845Z,95185.96
2018-12-24T00:23:38.568Z,95182.70
2018-12-24T00:26:09.367Z,95180.91
2018-12-24T00:28:40.714Z,95173.84
2018-12-24T00:31:11.510Z,95165.69
2018-12-24T00:33:42.383Z,95171.76
2018-12-24T00:36:13.491Z,95170.06
2018-12-24T00:38:44.388Z,95157.07
2018-12-24T00:41:15.236Z,95159.05
2018-12-24T00:43:46.566Z,95151.64
2018-12-24T00:46:17.262Z,95148.75
2018-12-24T00:48:47.994Z,95147.42
2018-12-24T00:51:19.024Z,95146.60
2018-12-24T00:53:50.030Z,95143.48
2018-12-24T00:56:20.860Z,95130.52
2018-12-24T00:58:51.579Z,95130.20
2018-12-24T01:01:22.732Z,95129.47
2018-12-24T01:03:53.812Z,95126.54
2018-12-24T01:06:24.830Z,95118.80
2018-12-24T01:08:55.536Z,95113.19
2018-12-24T01:11:26.892Z,95112.77
2018-12-24T01:13:57.834Z,95102.94
2018-12-24T01:16:28.894Z,95101.09
2018-12-24T01:18:59.985Z,95094.45
2018-12-24T01:21:31.047Z,95106.70
2018-12-24T01:24:01.773Z,95094.64
2018-12-24T01:26:32.631Z,95088.44
2018-12-24T01:29:03.353Z,95088.73
2018-12-24T01:31:34.927Z,95090.44
2018-12-24T01:34:05.776Z,95082.97
2018-12-24T01:36:36.763Z,95079.41
2018-12-24T01:39:08.623Z,95076.77
2018-12-24T01:41:39.692Z,95077.93
2018-12-24T01:44:10.422Z,95073.34
2018-12-24T01:46:41.706Z,95069.75
2018-12-24T01:49:12.687Z,95075.84
2018-12-24T01:51:43.687Z,95068.44
2018-12-24T01:54:14.509Z,95064.59
2018-12-24T01:56:45.882Z,95063.59
2018-12-24T01:59:16.906Z,95052.66
2018-12-24T02:01:48.656Z,95060.36
2018-12-24T02:04:20.338Z,95056.35
2018-12-24T02:06:51.500Z,95061.00
2018-12-24T02:09:22.544Z,95064.76
2018-12-24T02:11:53.371Z,95068.83
2018-12-24T02:14:24.201Z,95070.19
2018-12-24T02:16:55.271Z,95068.11
2018-12-24T02:19:25.975Z,95069.43
2018-12-24T02:21:56.946Z,95061.94
2018-12-24T02:24:27.764Z,95056.02
2018-12-24T02:26:58.775Z,95047.19
2018-12-24T02:29:29.498Z,95045.98
2018-12-24T02:32:00.880Z,95031.05
2018-12-24T02:34:31.780Z,95031.59
2018-12-24T02:37:02.840Z,95029.22
2018-12-24T02:39:33.933Z,95019.67
2018-12-24T02:42:05.243Z,95026.47
2018-12-24T02:44:35.976Z,94995.60
2018-12-24T02:47:07.238Z,94988.03
2018-12-24T02:49:38.059Z,94983.75
2018-12-24T02:52:09.027Z,94979.58
2018-12-24T02:54:39.800Z,94968.64
2018-12-24T02:57:11.067Z,94969.36
2018-12-24T02:59:41.792Z,94963.45
2018-12-24T03:02:13.048Z,94963.31
2018-12-24T03:04:44.006Z,94974.67
2018-12-24T03:07:15.170Z,94974.28
2018-12-24T03:09:48.477Z,94965.47
2018-12-24T03:12:19.575Z,94964.41
2018-12-24T03:14:50.662Z,94946.88
2018-12-24T03:17:21.562Z,94942.77
2018-12-24T03:19:52.274Z,94943.33
2018-12-24T03:22:23.329Z,94927.38
2018-12-24T03:24:54.326Z,94920.00
2018-12-24T03:27:25.311Z,94908.86
2018-12-24T03:29:56.012Z,94913.98
2018-12-24T03:32:27.656Z,94899.73
2018-12-24T03:34:58.534Z,94887.11
2018-12-24T03:37:29.885Z,94895.06
2018-12-24T03:40:00.610Z,94869.07
2018-12-24T03:42:31.488Z,94874.60
2018-12-24T03:45:02.544Z,94847.28
2018-12-24T03:47:33.558Z,94849.52
2018-12-24T03:50:04.277Z,94846.45
2018-12-24T03:52:35.204Z,94842.23
2018-12-24T03:55:06.179Z,94845.50
2018-12-24T03:57:37.182Z,94820.56
2018-12-24T04:00:08.877Z,94819.66
2018-12-24T04:02:40.023Z,94829.09
2018-12-24T04:05:10.753Z,94814.30
2018-12-24T04:07:41.914Z,94795.83
2018-12-24T04:10:12.612Z,94803.50
2018-12-24T04:12:43.754Z,94792.81
2018-12-24T04:15:14.715Z,94776.12
2018-12-24T04:17:45.757Z,94773.17
2018-12-24T04:20:16.825Z,94754.67
2018-12-24T04:22:47.908Z,94773.19
2018-12-24T04:25:18.644Z,94740.64
2018-12-24T04:27:49.943Z,94753.31
2018-12-24T04:30:20.984Z,94751.66
2018-12-24T04:32:51.849Z,94739.31
2018-12-24T04:35:22.773Z,94748.83
2018-12-24T04:37:53.623Z,94732.09
2018-12-24T04:40:24.443Z,94717.22
2018-12-24T04:42:55.669Z,94727.73
2018-12-24T04:45:26.385Z,94725.66
2018-12-24T04:47:57.641Z,94722.03
2018-12-24T04:50:28.435Z,94733.73
2018-12-24T04:52:59.517Z,94730.55
2018-12-24T04:55:30.410Z,94716.89
2018-12-24T04:58:01.625Z,94709.80
2018-12-24T05:00:32.343Z,94715.48
2018-12-24T05:03:04.271Z,94702.13
2018-12-24T05:05:35.388Z,94685.91
2018-12-24T05:08:06.094Z,94683.05
2018-12-24T05:10:36.857Z,94693.95
2018-12-24T05:13:08.162Z,94679.09
2018-12-24T05:15:39.049Z,94679.42
2018-12-24T05:18:10.248Z,94682.90
2018-12-24T05:20:40.962Z,94675.05
2018-12-24T05:23:11.691Z,94673.14
2018-12-24T05:25:42.681Z,94684.34
2018-12-24T05:28:13.700Z,94676.98
2018-12-24T05:30:44.423Z,94676.89
2018-12-24T05:33:15.683Z,94654.45
2018-12-24T05:35:46.611Z,94684.91
2018-12-24T05:38:17.381Z,94694.25
2018-12-24T05:40:49.458Z,94674.13
2018-12-24T05:43:20.660Z,94685.72
2018-12-24T05:45:51.437Z,94664.11
2018-12-24T05:48:22.414Z,94668.09
2018-12-24T05:50:53.223Z,94672.92
2018-12-24T05:53:24.352Z,94685.53
2018-12-24T05:55:55.265Z,94666.27
2018-12-24T05:58:26.358Z,94694.23
2018-12-24T06:00:57.449Z,94668.82
2018-12-24T06:03:28.642Z,94687.27
2018-12-24T06:05:59.361Z,94687.19
2018-12-24T06:08:30.417Z,94662.69
2018-12-24T06:11:01.466Z,94673.16
2018-12-24T06:13:32.566Z,94681.36
2018-12-24T06:16:03.540Z,94649.90
2018-12-24T06:18:34.281Z,94668.12
2018-12-24T06:21:05.067Z,94655.56
2018-12-24T06:23:36.135Z,94652.56
2018-12-24T06:26:07.258Z,94655.58
2018-12-24T06:28:38.317Z,94644.50
2018-12-24T06:31:51.622Z,94654.30
2018-12-24T06:34:22.183Z,94654.12
2018-12-24T06:36:52.825Z,94645.30
2018-12-24T06:39:23.471Z,94636.15
2018-12-24T06:41:53.751Z,94645.05
2018-12-24T06:44:24.284Z,94665.22
2018-12-24T06:46:54.651Z,94637.39
2018-12-24T06:49:26.138Z,94649.27
2018-12-24T06:51:56.447Z,94642.59
2018-12-24T06:54:27.438Z,94635.56
2018-12-24T06:56:57.724Z,94644.75
2018-12-24T06:59:28.021Z,94622.73
2018-12-24T07:01:58.794Z,94611.56
2018-12-24T07:04:29.378Z,94615.59
2018-12-24T07:07:00.138Z,94605.06
2018-12-24T07:09:30.417Z,94592.97
2018-12-24T07:12:01.115Z,94595.58
2018-12-24T07:14:31.790Z,94588.04
2018-12-24T07:17:02.280Z,94556.74
2018-12-24T07:19:32.549Z,94578.90
2018-12-24T07:22:03.456Z,94565.22
2018-12-24T07:24:33.857Z,94560.70
2018-12-24T07:27:04.173Z,94574.70
2018-12-24T07:29:34.924Z,94562.49
2018-12-24T07:32:05.779Z,94565.29
2018-12-24T07:34:36.118Z,94554.14
2018-12-24T07:37:06.714Z,94550.20
2018-12-24T07:39:36.996Z,94550.91
2018-12-24T07:42:07.853Z,94539.97
2018-12-24T07:44:38.177Z,94530.98
2018-12-24T07:47:08.698Z,94519.41
2018-12-24T07:49:39.103Z,94506.86
2018-12-24T07:52:09.797Z,94506.77
2018-12-24T07:54:40.108Z,94481.20
2018-12-24T07:57:10.997Z,94480.95
2018-12-24T07:59:41.527Z,94497.14
2018-12-24T08:02:12.087Z,94483.05
2018-12-24T08:04:42.805Z,94495.84
2018-12-24T08:07:13.422Z,94505.66
2018-12-24T08:09:44.224Z,94508.43
2018-12-24T08:12:14.943Z,94499.36
2018-12-24T08:14:45.260Z,94502.40
2018-12-24T08:17:15.737Z,94499.28
2018-12-24T08:19:46.129Z,94492.09
2018-12-24T08:22:16.694Z,94473.80
2018-12-24T08:24:47.149Z,94489.56
2018-12-24T08:27:18.030Z,94490.80
2018-12-24T08:29:48.319Z,94470.25
2018-12-24T08:32:19.003Z,94481.80
2018-12-24T08:34:51.032Z,94485.64
2018-12-24T08:37:21.352Z,94471.45
2018-12-24T08:39:51.694Z,94474.62
2018-12-24T08:42:22.556Z,94447.05
2018-12-24T08:44:52.970Z,94470.22
2018-12-24T08:47:23.498Z,94467.49
2018-12-24T08:49:54.177Z,94456.39
2018-12-24T08:52:25.188Z,94447.45
2018-12-24T08:54:55.469Z,94424.96
2018-12-24T08:57:26.101Z,94416.72
2018-12-24T08:59:56.505Z,94398.06
2018-12-24T09:02:27.322Z,94395.00
2018-12-24T09:04:57.826Z,94377.63
2018-12-24T09:07:28.435Z,94381.47
2018-12-24T09:09:58.803Z,94390.39
2018-12-24T09:12:29.734Z,94244.25
2018-12-24T09:15:00.093Z,94381.26
2018-12-24T09:17:30.818Z,94351.58
2018-12-24T09:20:01.461Z,94345.27
2018-12-24T09:22:32.053Z,94321.27
2018-12-24T09:25:02.623Z,94317.83
2018-12-24T09:27:33.558Z,94286.09
2018-12-24T09:30:03.907Z,94306.52
2018-12-24T09:32:34.678Z,94274.16
2018-12-24T09:35:05.458Z,94246.05
2018-12-24T09:37:36.158Z,94223.86
2018-12-24T09:40:07.920Z,94221.34
2018-12-24T09:42:38.532Z,94235.28
2018-12-24T09:45:08.868Z,94221.18
2018-12-24T09:47:39.435Z,94183.81
2018-12-24T09:50:09.825Z,94248.65
2018-12-24T09:52:40.463Z,94227.48
2018-12-24T09:55:11.138Z,94188.56
2018-12-24T09:57:41.738Z,94231.20
2018-12-24T10:00:15.432Z,94196.39
2018-12-24T10:02:56.709Z,94192.53
2018-12-24T10:05:28.929Z,94159.11
2018-12-24T10:08:01.530Z,94216.41
2018-12-24T10:10:32.644Z,94193.13
2018-12-24T10:13:03.264Z,94177.95
2018-12-24T10:15:33.610Z,94196.26
2018-12-24T10:18:03.919Z,94184.77
2018-12-24T10:20:34.224Z,94186.31
2018-12-24T10:23:05.245Z,94140.55
2018-12-24T10:25:35.766Z,94160.41
2018-12-24T10:28:06.418Z,94140.49
2018-12-24T10:30:37.386Z,94079.11
2018-12-24T10:33:08.205Z,94103.03
2018-12-24T10:35:39.676Z,94063.08
2018-12-24T10:38:10.375Z,94091.79
2018-12-24T10:40:49.673Z,94070.86
2018-12-24T10:43:20.226Z,94041.05
2018-12-24T10:45:50.549Z,94044.46
2018-12-24T10:48:20.916Z,94047.09
2018-12-24T10:50:51.558Z,94020.15
2018-12-24T10:53:22.200Z,94032.94
2018-12-24T10:55:52.474Z,93978.95
2018-12-24T10:58:23.200Z,93993.30
2018-12-24T11:00:53.991Z,93987.45
2018-12-24T11:03:24.305Z,93990.55
2018-12-24T11:05:55.020Z,93978.96
2018-12-24T11:08:25.579Z,93993.23
2018-12-24T11:10:55.850Z,93976.11
2018-12-24T11:13:26.407Z,93943.77
2018-12-24T11:15:57.082Z,93962.23
2018-12-24T11:18:27.428Z,93959.09
2018-12-24T11:20:58.240Z,93949.98
2018-12-24T11:23:28.632Z,93936.63
2018-12-24T11:25:59.231Z,93934.72
2018-12-24T11:28:29.856Z,93897.86
2018-12-24T11:31:00.147Z,93926.29
2018-12-24T11:33:30.471Z,93873.63
2018-12-24T11:36:01.092Z,93807.44
2018-12-24T11:38:31.395Z,93862.48
2018-12-24T11:41:01.961Z,93896.98
2018-12-24T11:43:32.352Z,93898.54
2018-12-24T11:46:03.073Z,93872.86
2018-12-24T11:48:33.373Z,93874.00
2018-12-24T11:51:04.162Z,93908.50
2018-12-24T11:53:34.466Z,93886.33
2018-12-24T11:56:05.245Z,93856.35
2018-12-24T11:58:36.572Z,93896.55
2018-12-24T12:01:07.049Z,93936.78
2018-12-24T12:03:37.717Z,93930.01
2018-12-24T12:06:08.300Z,93934.28
2018-12-24T12:08:38.585Z,93981.16
2018-12-24T12:11:09.162Z,93938.95
2018-12-24T12:13:39.541Z,93937.12
2018-12-24T12:16:09.885Z,93941.91
2018-12-24T12:18:40.519Z,93956.08
2018-12-24T12:21:11.474Z,93927.95
2018-12-24T12:23:41.786Z,93954.77
2018-12-24T12:26:12.698Z,93936.66
2018-12-24T12:28:42.991Z,93934.37
2018-12-24T12:31:13.669Z,93917.80
2018-12-24T12:33:44.209Z,93867.38
2018-12-24T12:36:14.877Z,93884.39
2018-12-24T12:38:45.584Z,93832.80
2018-12-24T12:41:16.161Z,93948.74
2018-12-24T12:43:46.440Z,93927.34
2018-12-24T12:46:17.134Z,93868.98
2018-12-24T12:48:47.955Z,93909.07
2018-12-24T12:51:18.633Z,93900.66
2018-12-24T12:53:48.936Z,93912.97
2018-12-24T12:56:20.860Z,93912.45
2018-12-24T12:58:51.144Z,93876.16
2018-12-24T13:01:21.876Z,93874.29
2018-12-24T13:03:52.447Z,93912.53
2018-12-24T13:06:23.088Z,93915.84
2018-12-24T13:08:53.390Z,93910.38
2018-12-24T13:11:23.810Z,93941.45
2018-12-24T13:13:54.432Z,93904.13
2018-12-24T13:16:25.026Z,93927.34
2018-12-24T13:18:55.700Z,93914.20
2018-12-24T13:21:26.402Z,93882.60
2018-12-24T13:23:56.674Z,93922.12
2018-12-24T13:26:27.481Z,93828.13
2018-12-24T13:28:57.780Z,93882.33
2018-12-24T13:31:28.808Z,93897.03
2018-12-24T13:33:59.501Z,93878.97
2018-12-24T13:36:29.951Z,93876.94
2018-12-24T13:39:00.639Z,93867.19
2018-12-24T13:41:31.488Z,93820.86
2018-12-24T13:44:01.839Z,93809.19
2018-12-24T13:46:32.254Z,93847.30
2018-12-24T13:49:02.941Z,93846.84
2018-12-24T13:51:33.272Z,93816.44
2018-12-24T13:54:03.615Z,93841.79
2018-12-24T13:56:34.154Z,93845.49
2018-12-24T13:59:04.517Z,93827.95
2018-12-24T14:01:34.964Z,93818.12
2018-12-24T14:04:05.282Z,93824.86
2018-12-24T14:06:35.765Z,93811.31
2018-12-24T14:09:08.588Z,93829.86
2018-12-24T14:11:38.911Z,93816.35
2018-12-24T14:14:09.243Z,93788.20
2018-12-24T14:16:39.877Z,93763.14
2018-12-24T14:19:10.171Z,93804.23
2018-12-24T14:21:40.512Z,93740.80
2018-12-24T14:24:11.168Z,93772.98
2018-12-24T14:26:41.778Z,93774.29
2018-12-24T14:29:12.050Z,93790.52
2018-12-24T14:31:42.704Z,93774.34
2018-12-24T14:34:13.001Z,93788.49
2018-12-24T14:36:43.447Z,93785.12
2018-12-24T14:39:13.843Z,93760.30
2018-12-24T14:41:44.146Z,93750.92
2018-12-24T14:44:14.810Z,93752.72
2018-12-24T14:46:45.407Z,93770.23
2018-12-24T14:49:15.701Z,93780.15
2018-12-24T14:51:46.380Z,93796.08
2018-12-24T14:54:17.121Z,93789.80
2018-12-24T14:56:48.421Z,93800.25
2018-12-24T14:59:19.396Z,93789.30
2018-12-24T15:01:49.933Z,93793.47
2018-12-24T15:04:20.211Z,93785.37
2018-12-24T15:06:51.562Z,93797.92
2018-12-24T15:09:21.943Z,93810.74
2018-12-24T15:11:52.629Z,93814.15
2018-12-24T15:14:23.181Z,93842.60
2018-12-24T15:16:53.452Z,93838.14
2018-12-24T15:19:24.046Z,93874.99
2018-12-24T15:21:54.636Z,93868.98
2018-12-24T15:24:24.950Z,93899.00
2018-12-24T15:26:55.408Z,93929.55
2018-12-24T15:29:27.852Z,93977.23
2018-12-24T15:31:58.135Z,94049.43
2018-12-24T15:34:28.494Z,94091.95
2018-12-24T15:36:59.021Z,94096.85
2018-12-24T15:39:29.718Z,94122.87
2018-12-24T15:42:00.350Z,94121.94
2018-12-24T15:44:30.617Z,94121.58
2018-12-24T15:47:01.213Z,94189.34
2018-12-24T15:49:31.900Z,94185.64
2018-12-24T15:52:02.203Z,94215.59
2018-12-24T15:54:32.646Z,94227.98
2018-12-24T15:57:03.337Z,94224.06
2018-12-24T15:59:33.616Z,93893.16
2018-12-24T16:02:03.935Z,94254.97
2018-12-24T16:04:34.358Z,94278.77
2018-12-24T16:07:04.667Z,94259.03
2018-12-24T16:09:35.212Z,94291.48
2018-12-24T16:12:05.537Z,94307.73
2018-12-24T16:14:35.836Z,94317.69
2018-12-24T16:17:06.605Z,94336.16
2018-12-24T16:19:36.919Z,94311.12
2018-12-24T16:22:07.231Z,94325.58
2018-12-24T16:24:37.923Z,94332.22
2018-12-24T16:27:08.417Z,94381.30
2018-12-24T16:29:38.707Z,94355.11
2018-12-24T16:32:09.402Z,94375.50
2018-12-24T16:34:39.847Z,94360.97
2018-12-24T16:37:10.138Z,94416.92
2018-12-24T16:39:40.893Z,94396.83
2018-12-24T16:42:11.177Z,94401.37
2018-12-24T16:44:41.955Z,94411.42
2018-12-24T16:47:12.337Z,94407.30
2018-12-24T16:49:42.661Z,94424.98
2018-12-24T16:52:13.352Z,94404.13
2018-12-24T16:54:44.075Z,94452.86
2018-12-24T16:57:14.340Z,94440.22
2018-12-24T16:59:45.115Z,94461.41
2018-12-24T17:02:15.523Z,94463.16
2018-12-24T17:04:45.788Z,94475.01
2018-12-24T17:07:16.148Z,94497.69
2018-12-24T17:09:46.808Z,94503.37
2018-12-24T17:12:17.125Z,94477.88
2018-12-24T17:14:47.487Z,94484.05
2018-12-24T17:17:18.024Z,94494.09
2018-12-24T17:19:48.392Z,94487.66
2018-12-24T17:22:18.762Z,94506.86
2018-12-24T17:24:49.359Z,94504.28
2018-12-24T17:27:19.888Z,94502.33
2018-12-24T17:29:50.154Z,94485.85
2018-12-24T17:32:20.797Z,94529.19
2018-12-24T17:34:51.193Z,94494.84
2018-12-24T17:37:21.477Z,94489.14
2018-12-24T17:39:52.210Z,94494.52
2018-12-24T17:42:22.886Z,94522.66
2018-12-24T17:44:53.333Z,94527.67
2018-12-24T17:47:23.672Z,94517.72
2018-12-24T17:49:53.966Z,94543.59
2018-12-24T17:52:24.636Z,94504.53
2018-12-24T17:54:55.310Z,94512.59
2018-12-24T17:57:25.650Z,94533.23
2018-12-24T17:59:56.227Z,94517.06
2018-12-24T18:02:26.941Z,94520.41
2018-12-24T18:04:57.208Z,94535.23
2018-12-24T18:07:28.728Z,94545.58
2018-12-24T18:09:59.354Z,94543.18
2018-12-24T18:12:29.701Z,94540.77
2018-12-24T18:15:00.181Z,94558.64
2018-12-24T18:17:30.657Z,94582.21
2018-12-24T18:20:01.379Z,94585.77
2018-12-24T18:22:33.066Z,94590.45
2018-12-24T18:25:03.356Z,94584.85
2018-12-24T18:27:33.943Z,94598.09
2018-12-24T18:30:05.007Z,94611.87
2018-12-24T18:32:36.383Z,94621.97
2018-12-24T18:35:06.759Z,94608.42
2018-12-24T18:37:37.420Z,94606.85
2018-12-24T18:40:07.746Z,94607.58
2018-12-24T18:42:38.025Z,94616.46
2018-12-24T18:45:08.722Z,94610.94
2018-12-24T18:47:39.359Z,94614.02
2018-12-24T18:50:09.894Z,94600.70
2018-12-24T18:52:40.439Z,94606.47
2018-12-24T18:55:10.782Z,94608.55
2018-12-24T18:57:41.494Z,94652.00
2018-12-24T19:00:11.907Z,94623.99
2018-12-24T19:02:42.225Z,94664.12
2018-12-24T19:05:12.767Z,94659.93
2018-12-24T19:07:43.435Z,94656.86
2018-12-24T19:10:13.735Z,94673.16
2018-12-24T19:12:44.646Z,94634.34
2018-12-24T19:15:15.265Z,94632.92
2018-12-24T19:17:45.541Z,94657.78
2018-12-24T19:20:16.136Z,94658.39
2018-12-24T19:22:46.420Z,94666.63
2018-12-24T19:25:17.667Z,94654.09
2018-12-24T19:27:49.465Z,94663.44
2018-12-24T19:30:19.788Z,94657.66
2018-12-24T19:32:51.499Z,94685.91
2018-12-24T19:35:21.871Z,94667.34
2018-12-24T19:37:52.175Z,94664.27
2018-12-24T19:40:22.848Z,94665.17
2018-12-24T19:42:53.217Z,94692.07
2018-12-24T19:45:23.565Z,94702.09
2018-12-24T19:47:53.930Z,94719.47
2018-12-24T19:50:24.612Z,94721.37
2018-12-24T19:52:54.951Z,94703.39
2018-12-24T19:55:25.449Z,94714.23
2018-12-24T19:57:55.771Z,94711.33
2018-12-24T20:00:26.524Z,94709.45
2018-12-24T20:02:56.901Z,94700.00
2018-12-24T20:05:27.210Z,94709.84
2018-12-24T20:07:57.741Z,94723.45
2018-12-24T20:10:28.333Z,94721.18
2018-12-24T20:12:58.660Z,94736.09
2018-12-24T20:15:28.984Z,94744.80
2018-12-24T20:17:59.572Z,94743.81
2018-12-24T20:20:29.831Z,94743.20
2018-12-24T20:23:00.165Z,94761.47
2018-12-24T20:25:30.817Z,94773.61
2018-12-24T20:28:01.272Z,94775.19
2018-12-24T20:30:31.765Z,94754.83
2018-12-24T20:33:02.090Z,94758.73
2018-12-24T20:35:32.565Z,94771.80
2018-12-24T20:38:03.259Z,94755.33
2018-12-24T20:40:33.587Z,94759.13
2018-12-24T20:43:03.860Z,94782.42
2018-12-24T20:45:34.469Z,94775.52
2018-12-24T20:48:06.727Z,94761.06
2018-12-24T20:50:36.909Z,94753.22
2018-12-24T20:53:07.557Z,94772.53
2018-12-24T20:55:38.224Z,94763.73
2018-12-24T20:58:09.109Z,94796.04
2018-12-24T21:00:39.505Z,94796.34
2018-12-24T21:03:10.225Z,94802.36
2018-12-24T21:05:43.827Z,94802.73
2018-12-24T21:08:14.303Z,94828.88
2018-12-24T21:10:44.568Z,94837.77
2018-12-24T21:13:15.219Z,94851.74
2018-12-24T21:15:45.905Z,94864.52
2018-12-24T21:18:16.225Z,94847.38
2018-12-24T21:20:46.878Z,94849.80
2018-12-24T21:23:17.645Z,94854.69
2018-12-24T21:25:47.973Z,94862.66
2018-12-24T21:28:18.390Z,94860.34
2018-12-24T21:30:49.025Z,94862.48
2018-12-24T21:33:19.323Z,94856.21
2018-12-24T21:35:49.598Z,94856.52
2018-12-24T21:38:20.296Z,94849.23
2018-12-24T21:40:50.555Z,94835.20
2018-12-24T21:43:20.865Z,94826.05
2018-12-24T21:45:51.586Z,94819.33
2018-12-24T21:48:23.897Z,94830.41
2018-12-24T21:50:53.980Z,94821.95
2018-12-24T21:53:24.560Z,94829.83
2018-12-24T21:55:55.244Z,94834.28
2018-12-24T21:58:25.508Z,94833.92
2018-12-24T22:00:56.321Z,94826.63
2018-12-24T22:03:26.587Z,94828.94
2018-12-24T22:05:56.994Z,94837.88
2018-12-24T22:08:27.550Z,94848.42
2018-12-24T22:10:57.863Z,94853.72
2018-12-24T22:13:28.563Z,94863.14
2018-12-24T22:15:59.267Z,94878.00
2018-12-24T22:18:32.353Z,94866.78
2018-12-24T22:21:01.970Z,94865.06
2018-12-24T22:23:32.565Z,94861.91
2018-12-24T22:26:02.876Z,94856.34
2018-12-24T22:28:33.220Z,94849.77
2018-12-24T22:31:03.619Z,94851.59
2018-12-24T22:33:33.882Z,94868.22
2018-12-24T22:36:04.512Z,94870.13
2018-12-24T22:38:34.874Z,94848.20
2018-12-24T22:41:05.578Z,94851.00
2018-12-24T22:43:36.292Z,94856.37
2018-12-24T22:46:06.652Z,94837.40
2018-12-24T22:48:40.803Z,94858.97
2018-12-24T22:51:09.554Z,94851.80
2018-12-24T22:53:39.825Z,94870.13
2018-12-24T22:56:10.153Z,94854.20
2018-12-24T22:58:40.875Z,94856.97
2018-12-24T23:01:11.152Z,94849.44
2018-12-24T23:03:41.468Z,94866.53
2018-12-24T23:06:12.189Z,94874.56
2018-12-24T23:08:42.757Z,94881.71
2018-12-24T23:11:13.403Z,94884.50
2018-12-24T23:13:43.733Z,94881.02
2018-12-24T23:16:14.158Z,94869.18
2018-12-24T23:18:49.326Z,94884.63
2018-12-24T23:21:16.875Z,94864.89
2018-12-24T23:23:47.145Z,94874.67
2018-12-24T23:26:18.896Z,94881.55
2018-12-24T23:28:49.225Z,94879.91
2018-12-24T23:31:19.543Z,94877.04
2018-12-24T23:33:49.985Z,94881.14
2018-12-24T23:36:20.729Z,94902.87
2018-12-24T23:38:51.038Z,94885.05
2018-12-24T23:41:21.552Z,94886.41
2018-12-24T23:43:52.319Z,94900.75
2018-12-24T23:46:22.661Z,94904.72
2018-12-24T23:48:57.631Z,94886.20
2018-12-24T23:51:25.462Z,94883.75
2018-12-24T23:53:55.732Z,94887.30
2018-12-24T23:56:26.081Z,94883.44
2018-12-24T23:58:56.692Z,94894.91
